KRYY/RYY METAR and TAF weather

Enter ICAO airport designator
Station Type Date Time Source
KRYY METAR 2022/12/05 13:50 UTC NOAA

KRYY 051350Z 10003KT 10SM -RA OVC037 10/08 A3014 RMK AO2 RAB12 SLP205 P0001 T01000083 $


Station Type Date Time Source
KRYY Decoded METAR 2022/12/05 13:50 UTC NOAA

Marietta, Cobb County-McCollum Field Airport, GA, United States (KRYY) 34-00-47N 084-35-55W
Dec 05, 2022 - 08:50 AM EST / 2022.12.05 1350 UTC
Wind: from the E (100 degrees) at 3 MPH (3 KT):0
Visibility: 10 mile(s):0
Sky conditions: overcast
Weather: light rain
Precipitation last hour: 0.01 inches
Temperature: 50.0 F (10.0 C)
Dew Point: 46.9 F (8.3 C)
Relative Humidity: 89%
Pressure (altimeter): 30.14 in. Hg (1020 hPa)
ob: KRYY 051350Z 10003KT 10SM -RA OVC037 10/08 A3014 RMK AO2 RAB12 SLP205 P0001 T01000083
cycle: 14

Station Type Date Time Source
KRYY TAF 2022/12/05 14:09 UTC NOAA

TAF
AMD KRYY 051407Z 0514/0612 10003KT P6SM -RA OVC035
TEMPO 0514/0518 2SM SHRA BR OVC007
FM051800 10006KT 6SM -SHRA BR OVC008
FM060200 11007KT 6SM -SHRA BR OVC004
FM060600 11005KT 4SM BR OVC003

Example: see airport list